sensor_id;sensor_type;location;lat;lon;timestamp;P1;durP1;ratioP1;P2;durP2;ratioP2
4311;SDS011;2169;49.086;9.284;2023-12-28T00:01:08;3.33;;;2.30;;
4311;SDS011;2169;49.086;9.284;2023-12-28T00:03:35;2.40;;;2.20;;
4311;SDS011;2169;49.086;9.284;2023-12-28T00:06:02;1.73;;;1.63;;
4311;SDS011;2169;49.086;9.284;2023-12-28T00:08:29;1.77;;;1.23;;
4311;SDS011;2169;49.086;9.284;2023-12-28T00:10:57;2.10;;;1.73;;
4311;SDS011;2169;49.086;9.284;2023-12-28T00:13:26;3.10;;;1.30;;
4311;SDS011;2169;49.086;9.284;2023-12-28T00:15:53;1.97;;;1.87;;
4311;SDS011;2169;49.086;9.284;2023-12-28T00:18:19;2.13;;;1.20;;
4311;SDS011;2169;49.086;9.284;2023-12-28T00:20:46;1.80;;;1.63;;
4311;SDS011;2169;49.086;9.284;2023-12-28T00:23:13;1.43;;;1.30;;
4311;SDS011;2169;49.086;9.284;2023-12-28T00:25:40;2.80;;;2.60;;
4311;SDS011;2169;49.086;9.284;2023-12-28T00:28:07;5.73;;;3.17;;
4311;SDS011;2169;49.086;9.284;2023-12-28T00:30:35;2.07;;;1.90;;
4311;SDS011;2169;49.086;9.284;2023-12-28T00:33:02;2.63;;;2.40;;
4311;SDS011;2169;49.086;9.284;2023-12-28T00:35:29;1.85;;;1.75;;
4311;SDS011;2169;49.086;9.284;2023-12-28T00:37:56;2.80;;;2.03;;
4311;SDS011;2169;49.086;9.284;2023-12-28T00:40:23;1.50;;;1.13;;
4311;SDS011;2169;49.086;9.284;2023-12-28T00:42:50;5.32;;;2.65;;
4311;SDS011;2169;49.086;9.284;2023-12-28T00:45:17;1.93;;;1.93;;
4311;SDS011;2169;49.086;9.284;2023-12-28T00:47:45;1.60;;;1.50;;
4311;SDS011;2169;49.086;9.284;2023-12-28T00:50:12;1.15;;;1.00;;
4311;SDS011;2169;49.086;9.284;2023-12-28T00:52:40;1.10;;;1.10;;
4311;SDS011;2169;49.086;9.284;2023-12-28T00:55:07;2.10;;;2.00;;
4311;SDS011;2169;49.086;9.284;2023-12-28T00:57:34;3.55;;;3.25;;
4311;SDS011;2169;49.086;9.284;2023-12-28T01:00:01;0.90;;;0.90;;
4311;SDS011;2169;49.086;9.284;2023-12-28T01:02:29;2.00;;;1.30;;
4311;SDS011;2169;49.086;9.284;2023-12-28T01:04:57;1.50;;;1.23;;
4311;SDS011;2169;49.086;9.284;2023-12-28T01:07:24;0.97;;;0.97;;
4311;SDS011;2169;49.086;9.284;2023-12-28T01:09:51;5.03;;;1.35;;
4311;SDS011;2169;49.086;9.284;2023-12-28T01:12:18;1.20;;;1.20;;
4311;SDS011;2169;49.086;9.284;2023-12-28T01:14:45;1.10;;;1.00;;
4311;SDS011;2169;49.086;9.284;2023-12-28T01:17:12;1.80;;;1.30;;
4311;SDS011;2169;49.086;9.284;2023-12-28T01:19:39;1.83;;;1.70;;
4311;SDS011;2169;49.086;9.284;2023-12-28T01:22:07;1.23;;;1.23;;
4311;SDS011;2169;49.086;9.284;2023-12-28T01:24:34;2.27;;;1.53;;
4311;SDS011;2169;49.086;9.284;2023-12-28T01:27:01;1.67;;;1.57;;
4311;SDS011;2169;49.086;9.284;2023-12-28T01:29:28;0.97;;;0.90;;
4311;SDS011;2169;49.086;9.284;2023-12-28T01:31:55;1.10;;;1.00;;
4311;SDS011;2169;49.086;9.284;2023-12-28T01:34:22;1.00;;;1.00;;
4311;SDS011;2169;49.086;9.284;2023-12-28T01:36:48;1.27;;;1.17;;
4311;SDS011;2169;49.086;9.284;2023-12-28T01:39:17;1.50;;;1.45;;
4311;SDS011;2169;49.086;9.284;2023-12-28T01:41:44;1.00;;;1.00;;
4311;SDS011;2169;49.086;9.284;2023-12-28T01:44:11;3.17;;;1.93;;
4311;SDS011;2169;49.086;9.284;2023-12-28T01:46:38;1.93;;;1.17;;
4311;SDS011;2169;49.086;9.284;2023-12-28T01:49:06;7.10;;;2.07;;
4311;SDS011;2169;49.086;9.284;2023-12-28T01:51:34;0.93;;;0.93;;
4311;SDS011;2169;49.086;9.284;2023-12-28T01:54:01;1.47;;;0.87;;
4311;SDS011;2169;49.086;9.284;2023-12-28T01:56:30;1.45;;;1.45;;
4311;SDS011;2169;49.086;9.284;2023-12-28T01:58:57;3.47;;;2.20;;
4311;SDS011;2169;49.086;9.284;2023-12-28T02:01:24;1.60;;;1.40;;
4311;SDS011;2169;49.086;9.284;2023-12-28T02:03:51;4.55;;;1.25;;
4311;SDS011;2169;49.086;9.284;2023-12-28T02:06:20;1.33;;;1.33;;
4311;SDS011;2169;49.086;9.284;2023-12-28T02:08:49;2.07;;;1.90;;
4311;SDS011;2169;49.086;9.284;2023-12-28T02:11:16;2.05;;;1.15;;
4311;SDS011;2169;49.086;9.284;2023-12-28T02:13:46;1.60;;;1.20;;
4311;SDS011;2169;49.086;9.284;2023-12-28T02:16:14;2.78;;;0.80;;
4311;SDS011;2169;49.086;9.284;2023-12-28T02:18:47;1.60;;;1.40;;
4311;SDS011;2169;49.086;9.284;2023-12-28T02:21:17;1.00;;;1.00;;
4311;SDS011;2169;49.086;9.284;2023-12-28T02:23:46;1.42;;;1.33;;
4311;SDS011;2169;49.086;9.284;2023-12-28T02:26:15;1.77;;;0.90;;
4311;SDS011;2169;49.086;9.284;2023-12-28T02:28:42;0.80;;;0.80;;
4311;SDS011;2169;49.086;9.284;2023-12-28T02:31:10;0.90;;;0.90;;
4311;SDS011;2169;49.086;9.284;2023-12-28T02:33:46;1.75;;;1.00;;
4311;SDS011;2169;49.086;9.284;2023-12-28T02:36:18;2.05;;;0.90;;
4311;SDS011;2169;49.086;9.284;2023-12-28T02:38:47;4.50;;;1.57;;
4311;SDS011;2169;49.086;9.284;2023-12-28T02:41:17;1.90;;;1.00;;
4311;SDS011;2169;49.086;9.284;2023-12-28T02:43:46;2.35;;;1.23;;
4311;SDS011;2169;49.086;9.284;2023-12-28T02:46:14;0.90;;;0.90;;
4311;SDS011;2169;49.086;9.284;2023-12-28T02:48:43;1.17;;;1.15;;
4311;SDS011;2169;49.086;9.284;2023-12-28T02:51:10;1.65;;;1.55;;
4311;SDS011;2169;49.086;9.284;2023-12-28T02:53:37;5.23;;;1.30;;
4311;SDS011;2169;49.086;9.284;2023-12-28T02:56:04;1.33;;;1.07;;
4311;SDS011;2169;49.086;9.284;2023-12-28T02:58:34;1.00;;;1.00;;
4311;SDS011;2169;49.086;9.284;2023-12-28T03:01:00;0.70;;;0.70;;
4311;SDS011;2169;49.086;9.284;2023-12-28T03:03:27;1.48;;;1.38;;
4311;SDS011;2169;49.086;9.284;2023-12-28T03:05:54;0.90;;;0.90;;
4311;SDS011;2169;49.086;9.284;2023-12-28T03:08:21;0.70;;;0.70;;
4311;SDS011;2169;49.086;9.284;2023-12-28T03:10:48;1.40;;;1.20;;
4311;SDS011;2169;49.086;9.284;2023-12-28T03:13:15;1.63;;;1.33;;
4311;SDS011;2169;49.086;9.284;2023-12-28T03:15:43;0.77;;;0.77;;
4311;SDS011;2169;49.086;9.284;2023-12-28T03:18:10;1.03;;;1.03;;
4311;SDS011;2169;49.086;9.284;2023-12-28T03:20:37;1.03;;;1.00;;
4311;SDS011;2169;49.086;9.284;2023-12-28T03:23:04;1.30;;;1.20;;
4311;SDS011;2169;49.086;9.284;2023-12-28T03:25:31;1.45;;;1.38;;
4311;SDS011;2169;49.086;9.284;2023-12-28T03:27:57;1.80;;;1.30;;
4311;SDS011;2169;49.086;9.284;2023-12-28T03:30:24;1.98;;;1.17;;
4311;SDS011;2169;49.086;9.284;2023-12-28T03:32:53;0.63;;;0.63;;
4311;SDS011;2169;49.086;9.284;2023-12-28T03:35:19;1.37;;;1.03;;
4311;SDS011;2169;49.086;9.284;2023-12-28T03:37:47;2.92;;;1.00;;
4311;SDS011;2169;49.086;9.284;2023-12-28T03:40:14;3.45;;;1.35;;
4311;SDS011;2169;49.086;9.284;2023-12-28T03:42:41;0.93;;;0.93;;
4311;SDS011;2169;49.086;9.284;2023-12-28T03:45:09;2.08;;;0.90;;
4311;SDS011;2169;49.086;9.284;2023-12-28T03:47:37;1.00;;;0.93;;
4311;SDS011;2169;49.086;9.284;2023-12-28T03:50:08;1.92;;;1.83;;
4311;SDS011;2169;49.086;9.284;2023-12-28T03:52:35;3.23;;;0.83;;
4311;SDS011;2169;49.086;9.284;2023-12-28T03:55:03;2.93;;;1.10;;
4311;SDS011;2169;49.086;9.284;2023-12-28T03:57:30;0.80;;;0.80;;
4311;SDS011;2169;49.086;9.284;2023-12-28T03:59:57;0.90;;;0.90;;
4311;SDS011;2169;49.086;9.284;2023-12-28T04:02:24;2.60;;;1.07;;
4311;SDS011;2169;49.086;9.284;2023-12-28T04:04:55;0.90;;;0.90;;
4311;SDS011;2169;49.086;9.284;2023-12-28T04:07:25;1.57;;;1.07;;
4311;SDS011;2169;49.086;9.284;2023-12-28T04:09:52;1.43;;;1.33;;
4311;SDS011;2169;49.086;9.284;2023-12-28T04:12:19;1.23;;;1.23;;
4311;SDS011;2169;49.086;9.284;2023-12-28T04:14:46;1.00;;;1.00;;
4311;SDS011;2169;49.086;9.284;2023-12-28T04:17:13;1.23;;;1.13;;
4311;SDS011;2169;49.086;9.284;2023-12-28T04:19:40;0.90;;;0.90;;
4311;SDS011;2169;49.086;9.284;2023-12-28T04:22:07;1.63;;;1.33;;
4311;SDS011;2169;49.086;9.284;2023-12-28T04:24:36;1.10;;;1.00;;
4311;SDS011;2169;49.086;9.284;2023-12-28T04:27:03;1.37;;;1.27;;
4311;SDS011;2169;49.086;9.284;2023-12-28T04:29:30;2.93;;;1.07;;
4311;SDS011;2169;49.086;9.284;2023-12-28T04:31:57;0.87;;;0.83;;
4311;SDS011;2169;49.086;9.284;2023-12-28T04:34:24;0.73;;;0.73;;
4311;SDS011;2169;49.086;9.284;2023-12-28T04:36:51;2.20;;;0.60;;
4311;SDS011;2169;49.086;9.284;2023-12-28T04:39:18;1.40;;;1.37;;
4311;SDS011;2169;49.086;9.284;2023-12-28T04:41:46;1.00;;;1.00;;
4311;SDS011;2169;49.086;9.284;2023-12-28T04:44:14;2.20;;;1.23;;
4311;SDS011;2169;49.086;9.284;2023-12-28T04:46:41;1.70;;;1.07;;
4311;SDS011;2169;49.086;9.284;2023-12-28T04:49:10;5.80;;;1.60;;
4311;SDS011;2169;49.086;9.284;2023-12-28T04:51:41;0.90;;;0.90;;
4311;SDS011;2169;49.086;9.284;2023-12-28T04:54:08;0.70;;;0.70;;
4311;SDS011;2169;49.086;9.284;2023-12-28T04:56:35;0.60;;;0.60;;
4311;SDS011;2169;49.086;9.284;2023-12-28T04:59:04;1.53;;;1.30;;
4311;SDS011;2169;49.086;9.284;2023-12-28T05:01:31;0.60;;;0.60;;
4311;SDS011;2169;49.086;9.284;2023-12-28T05:03:58;1.23;;;1.13;;
4311;SDS011;2169;49.086;9.284;2023-12-28T05:06:27;1.10;;;1.10;;
4311;SDS011;2169;49.086;9.284;2023-12-28T05:08:54;2.47;;;1.20;;
4311;SDS011;2169;49.086;9.284;2023-12-28T05:11:21;1.00;;;1.00;;
4311;SDS011;2169;49.086;9.284;2023-12-28T05:13:51;2.73;;;0.87;;
4311;SDS011;2169;49.086;9.284;2023-12-28T05:16:20;0.60;;;0.60;;
4311;SDS011;2169;49.086;9.284;2023-12-28T05:18:47;6.43;;;0.90;;
4311;SDS011;2169;49.086;9.284;2023-12-28T05:21:16;0.87;;;0.87;;
4311;SDS011;2169;49.086;9.284;2023-12-28T05:23:44;0.83;;;0.83;;
4311;SDS011;2169;49.086;9.284;2023-12-28T05:26:11;2.50;;;1.33;;
4311;SDS011;2169;49.086;9.284;2023-12-28T05:28:38;1.67;;;1.57;;
4311;SDS011;2169;49.086;9.284;2023-12-28T05:31:05;5.03;;;0.93;;
4311;SDS011;2169;49.086;9.284;2023-12-28T05:33:33;1.73;;;1.63;;
4311;SDS011;2169;49.086;9.284;2023-12-28T05:36:00;0.83;;;0.83;;
4311;SDS011;2169;49.086;9.284;2023-12-28T05:38:27;1.80;;;1.70;;
4311;SDS011;2169;49.086;9.284;2023-12-28T05:40:54;1.10;;;1.10;;
4311;SDS011;2169;49.086;9.284;2023-12-28T05:43:21;1.00;;;1.00;;
4311;SDS011;2169;49.086;9.284;2023-12-28T05:45:49;1.83;;;1.30;;
4311;SDS011;2169;49.086;9.284;2023-12-28T05:48:16;5.23;;;1.43;;
4311;SDS011;2169;49.086;9.284;2023-12-28T05:50:44;1.80;;;1.07;;
4311;SDS011;2169;49.086;9.284;2023-12-28T05:53:11;0.90;;;0.90;;
4311;SDS011;2169;49.086;9.284;2023-12-28T05:55:39;1.03;;;1.00;;
4311;SDS011;2169;49.086;9.284;2023-12-28T05:58:06;1.93;;;1.30;;
4311;SDS011;2169;49.086;9.284;2023-12-28T06:00:33;1.00;;;1.00;;
4311;SDS011;2169;49.086;9.284;2023-12-28T06:03:01;2.87;;;1.00;;
4311;SDS011;2169;49.086;9.284;2023-12-28T06:05:28;1.20;;;1.10;;
4311;SDS011;2169;49.086;9.284;2023-12-28T06:07:56;1.20;;;1.10;;
4311;SDS011;2169;49.086;9.284;2023-12-28T06:10:23;2.17;;;1.63;;
4311;SDS011;2169;49.086;9.284;2023-12-28T06:12:50;1.07;;;1.07;;
4311;SDS011;2169;49.086;9.284;2023-12-28T06:15:17;6.50;;;1.70;;
4311;SDS011;2169;49.086;9.284;2023-12-28T06:17:44;0.87;;;0.87;;
4311;SDS011;2169;49.086;9.284;2023-12-28T06:20:11;4.37;;;1.17;;
4311;SDS011;2169;49.086;9.284;2023-12-28T06:22:38;1.50;;;1.40;;
4311;SDS011;2169;49.086;9.284;2023-12-28T06:25:08;2.80;;;1.30;;
4311;SDS011;2169;49.086;9.284;2023-12-28T06:27:37;7.23;;;1.57;;
4311;SDS011;2169;49.086;9.284;2023-12-28T06:30:05;2.17;;;2.00;;
4311;SDS011;2169;49.086;9.284;2023-12-28T06:32:33;3.03;;;1.50;;
4311;SDS011;2169;49.086;9.284;2023-12-28T06:35:00;1.53;;;1.43;;
4311;SDS011;2169;49.086;9.284;2023-12-28T06:37:26;0.90;;;0.90;;
4311;SDS011;2169;49.086;9.284;2023-12-28T06:39:53;1.70;;;1.37;;
4311;SDS011;2169;49.086;9.284;2023-12-28T06:42:22;2.63;;;2.43;;
4311;SDS011;2169;49.086;9.284;2023-12-28T06:44:48;3.03;;;2.13;;
4311;SDS011;2169;49.086;9.284;2023-12-28T06:47:15;7.27;;;3.13;;
4311;SDS011;2169;49.086;9.284;2023-12-28T06:49:42;2.87;;;2.67;;
4311;SDS011;2169;49.086;9.284;2023-12-28T06:52:10;7.50;;;2.40;;
4311;SDS011;2169;49.086;9.284;2023-12-28T06:54:36;7.13;;;2.33;;
4311;SDS011;2169;49.086;9.284;2023-12-28T06:57:04;1.83;;;1.73;;
4311;SDS011;2169;49.086;9.284;2023-12-28T06:59:32;22.50;;;3.40;;
4311;SDS011;2169;49.086;9.284;2023-12-28T07:01:59;3.83;;;3.53;;
4311;SDS011;2169;49.086;9.284;2023-12-28T07:04:26;2.43;;;2.23;;
4311;SDS011;2169;49.086;9.284;2023-12-28T07:06:54;4.33;;;2.47;;
4311;SDS011;2169;49.086;9.284;2023-12-28T07:09:21;3.40;;;2.20;;
4311;SDS011;2169;49.086;9.284;2023-12-28T07:11:48;5.70;;;3.00;;
4311;SDS011;2169;49.086;9.284;2023-12-28T07:14:15;4.37;;;2.37;;
4311;SDS011;2169;49.086;9.284;2023-12-28T07:16:43;1.87;;;1.77;;
4311;SDS011;2169;49.086;9.284;2023-12-28T07:19:10;2.10;;;2.00;;
4311;SDS011;2169;49.086;9.284;2023-12-28T07:21:37;2.80;;;1.93;;
4311;SDS011;2169;49.086;9.284;2023-12-28T07:24:05;7.23;;;3.30;;
4311;SDS011;2169;49.086;9.284;2023-12-28T07:26:32;2.70;;;2.60;;
4311;SDS011;2169;49.086;9.284;2023-12-28T07:28:59;3.43;;;3.13;;
4311;SDS011;2169;49.086;9.284;2023-12-28T07:31:27;5.90;;;2.73;;
4311;SDS011;2169;49.086;9.284;2023-12-28T07:33:58;5.40;;;3.40;;
4311;SDS011;2169;49.086;9.284;2023-12-28T07:36:24;3.77;;;3.47;;
4311;SDS011;2169;49.086;9.284;2023-12-28T07:38:51;12.47;;;2.30;;
4311;SDS011;2169;49.086;9.284;2023-12-28T07:41:18;5.30;;;1.80;;
4311;SDS011;2169;49.086;9.284;2023-12-28T07:43:45;1.43;;;1.43;;
4311;SDS011;2169;49.086;9.284;2023-12-28T07:46:12;5.27;;;1.50;;
4311;SDS011;2169;49.086;9.284;2023-12-28T07:48:39;1.43;;;1.33;;
4311;SDS011;2169;49.086;9.284;2023-12-28T07:51:08;1.60;;;1.50;;
4311;SDS011;2169;49.086;9.284;2023-12-28T07:53:34;1.70;;;1.60;;
4311;SDS011;2169;49.086;9.284;2023-12-28T07:56:01;3.90;;;1.60;;
4311;SDS011;2169;49.086;9.284;2023-12-28T07:58:28;1.40;;;1.30;;
4311;SDS011;2169;49.086;9.284;2023-12-28T08:00:56;1.50;;;1.40;;
4311;SDS011;2169;49.086;9.284;2023-12-28T08:03:22;3.83;;;1.80;;
4311;SDS011;2169;49.086;9.284;2023-12-28T08:05:49;3.30;;;2.37;;
4311;SDS011;2169;49.086;9.284;2023-12-28T08:08:17;2.53;;;2.33;;
4311;SDS011;2169;49.086;9.284;2023-12-28T08:10:44;4.70;;;3.37;;
4311;SDS011;2169;49.086;9.284;2023-12-28T08:13:12;3.87;;;3.50;;
4311;SDS011;2169;49.086;9.284;2023-12-28T08:15:39;4.30;;;2.33;;
4311;SDS011;2169;49.086;9.284;2023-12-28T08:18:06;8.37;;;2.90;;
4311;SDS011;2169;49.086;9.284;2023-12-28T08:20:33;2.43;;;2.03;;
4311;SDS011;2169;49.086;9.284;2023-12-28T08:23:00;3.60;;;3.30;;
4311;SDS011;2169;49.086;9.284;2023-12-28T08:25:29;3.93;;;3.73;;
4311;SDS011;2169;49.086;9.284;2023-12-28T08:27:56;2.87;;;2.67;;
4311;SDS011;2169;49.086;9.284;2023-12-28T08:30:24;2.77;;;2.67;;
4311;SDS011;2169;49.086;9.284;2023-12-28T08:32:52;2.97;;;2.80;;
4311;SDS011;2169;49.086;9.284;2023-12-28T08:35:19;3.13;;;2.23;;
4311;SDS011;2169;49.086;9.284;2023-12-28T08:37:46;3.27;;;2.97;;
4311;SDS011;2169;49.086;9.284;2023-12-28T08:40:13;3.40;;;3.10;;
4311;SDS011;2169;49.086;9.284;2023-12-28T08:42:42;2.87;;;2.67;;
4311;SDS011;2169;49.086;9.284;2023-12-28T08:45:10;2.00;;;1.90;;
4311;SDS011;2169;49.086;9.284;2023-12-28T08:47:37;2.13;;;2.03;;
4311;SDS011;2169;49.086;9.284;2023-12-28T08:50:04;2.07;;;1.70;;
4311;SDS011;2169;49.086;9.284;2023-12-28T08:52:31;5.30;;;4.17;;
4311;SDS011;2169;49.086;9.284;2023-12-28T08:54:58;1.83;;;1.73;;
4311;SDS011;2169;49.086;9.284;2023-12-28T08:57:26;7.20;;;2.47;;
4311;SDS011;2169;49.086;9.284;2023-12-28T08:59:56;2.70;;;2.50;;
4311;SDS011;2169;49.086;9.284;2023-12-28T09:02:27;2.80;;;2.60;;
4311;SDS011;2169;49.086;9.284;2023-12-28T09:04:54;4.53;;;4.17;;
4311;SDS011;2169;49.086;9.284;2023-12-28T09:07:21;6.70;;;2.60;;
4311;SDS011;2169;49.086;9.284;2023-12-28T09:09:51;3.20;;;3.00;;
4311;SDS011;2169;49.086;9.284;2023-12-28T09:12:18;3.57;;;2.40;;
4311;SDS011;2169;49.086;9.284;2023-12-28T09:14:46;3.00;;;2.70;;
4311;SDS011;2169;49.086;9.284;2023-12-28T09:17:16;5.30;;;2.70;;
4311;SDS011;2169;49.086;9.284;2023-12-28T09:19:44;3.17;;;2.87;;
4311;SDS011;2169;49.086;9.284;2023-12-28T09:22:11;4.80;;;3.07;;
4311;SDS011;2169;49.086;9.284;2023-12-28T09:24:40;5.23;;;3.10;;
4311;SDS011;2169;49.086;9.284;2023-12-28T09:27:09;6.70;;;3.83;;
4311;SDS011;2169;49.086;9.284;2023-12-28T09:29:37;7.43;;;3.67;;
4311;SDS011;2169;49.086;9.284;2023-12-28T09:32:04;2.83;;;2.50;;
4311;SDS011;2169;49.086;9.284;2023-12-28T09:34:42;3.03;;;2.63;;
4311;SDS011;2169;49.086;9.284;2023-12-28T09:37:09;4.23;;;3.27;;
4311;SDS011;2169;49.086;9.284;2023-12-28T09:39:36;3.57;;;3.27;;
4311;SDS011;2169;49.086;9.284;2023-12-28T09:42:04;6.33;;;2.63;;
4311;SDS011;2169;49.086;9.284;2023-12-28T09:44:36;3.03;;;2.90;;
4311;SDS011;2169;49.086;9.284;2023-12-28T09:47:08;4.73;;;4.00;;
4311;SDS011;2169;49.086;9.284;2023-12-28T09:49:41;3.67;;;2.63;;
4311;SDS011;2169;49.086;9.284;2023-12-28T09:52:09;5.00;;;4.50;;
4311;SDS011;2169;49.086;9.284;2023-12-28T09:54:39;3.37;;;2.60;;
4311;SDS011;2169;49.086;9.284;2023-12-28T09:57:08;8.30;;;4.40;;
4311;SDS011;2169;49.086;9.284;2023-12-28T09:59:40;8.93;;;2.83;;
4311;SDS011;2169;49.086;9.284;2023-12-28T10:02:08;3.03;;;2.73;;
4311;SDS011;2169;49.086;9.284;2023-12-28T10:04:36;2.03;;;1.53;;
4311;SDS011;2169;49.086;9.284;2023-12-28T10:07:06;21.80;;;2.60;;
4311;SDS011;2169;49.086;9.284;2023-12-28T10:09:33;7.30;;;3.47;;
4311;SDS011;2169;49.086;9.284;2023-12-28T10:12:00;3.30;;;3.10;;
4311;SDS011;2169;49.086;9.284;2023-12-28T10:14:28;3.03;;;2.80;;
4311;SDS011;2169;49.086;9.284;2023-12-28T10:16:55;4.17;;;3.77;;
4311;SDS011;2169;49.086;9.284;2023-12-28T10:19:22;4.07;;;3.13;;
4311;SDS011;2169;49.086;9.284;2023-12-28T10:21:49;2.67;;;2.57;;
4311;SDS011;2169;49.086;9.284;2023-12-28T10:24:18;3.73;;;2.57;;
4311;SDS011;2169;49.086;9.284;2023-12-28T10:26:46;2.60;;;2.20;;
4311;SDS011;2169;49.086;9.284;2023-12-28T10:29:13;5.60;;;3.10;;
4311;SDS011;2169;49.086;9.284;2023-12-28T10:31:41;5.83;;;3.20;;
4311;SDS011;2169;49.086;9.284;2023-12-28T10:34:14;2.87;;;2.67;;
4311;SDS011;2169;49.086;9.284;2023-12-28T10:36:41;5.97;;;3.43;;
4311;SDS011;2169;49.086;9.284;2023-12-28T10:39:09;2.67;;;2.53;;
4311;SDS011;2169;49.086;9.284;2023-12-28T10:41:39;7.83;;;2.57;;
4311;SDS011;2169;49.086;9.284;2023-12-28T10:44:10;3.80;;;3.27;;
4311;SDS011;2169;49.086;9.284;2023-12-28T10:46:43;5.10;;;2.67;;
4311;SDS011;2169;49.086;9.284;2023-12-28T10:49:12;3.30;;;3.00;;
4311;SDS011;2169;49.086;9.284;2023-12-28T10:51:42;3.00;;;2.80;;
4311;SDS011;2169;49.086;9.284;2023-12-28T10:54:15;3.77;;;2.73;;
4311;SDS011;2169;49.086;9.284;2023-12-28T10:56:55;2.10;;;2.00;;
4311;SDS011;2169;49.086;9.284;2023-12-28T10:59:28;3.40;;;1.87;;
4311;SDS011;2169;49.086;9.284;2023-12-28T11:02:04;2.53;;;2.33;;
4311;SDS011;2169;49.086;9.284;2023-12-28T11:04:34;3.10;;;2.63;;
4311;SDS011;2169;49.086;9.284;2023-12-28T11:07:07;2.57;;;2.10;;
4311;SDS011;2169;49.086;9.284;2023-12-28T11:09:36;6.80;;;3.07;;
4311;SDS011;2169;49.086;9.284;2023-12-28T11:12:07;9.17;;;3.70;;
4311;SDS011;2169;49.086;9.284;2023-12-28T11:14:35;4.00;;;2.20;;
4311;SDS011;2169;49.086;9.284;2023-12-28T11:17:05;4.47;;;2.70;;
4311;SDS011;2169;49.086;9.284;2023-12-28T11:19:32;3.03;;;2.07;;
4311;SDS011;2169;49.086;9.284;2023-12-28T11:22:01;1.87;;;1.87;;
4311;SDS011;2169;49.086;9.284;2023-12-28T11:24:29;10.23;;;3.60;;
4311;SDS011;2169;49.086;9.284;2023-12-28T11:26:56;7.10;;;3.23;;
4311;SDS011;2169;49.086;9.284;2023-12-28T11:29:25;5.03;;;2.60;;
4311;SDS011;2169;49.086;9.284;2023-12-28T11:31:56;5.93;;;3.30;;
4311;SDS011;2169;49.086;9.284;2023-12-28T11:34:24;4.13;;;3.80;;
4311;SDS011;2169;49.086;9.284;2023-12-28T11:36:52;6.77;;;3.17;;
4311;SDS011;2169;49.086;9.284;2023-12-28T11:39:26;4.90;;;3.50;;
4311;SDS011;2169;49.086;9.284;2023-12-28T11:41:59;3.57;;;3.27;;
4311;SDS011;2169;49.086;9.284;2023-12-28T11:44:30;5.43;;;2.80;;
4311;SDS011;2169;49.086;9.284;2023-12-28T11:46:58;4.60;;;2.30;;
4311;SDS011;2169;49.086;9.284;2023-12-28T11:49:25;5.47;;;3.70;;
4311;SDS011;2169;49.086;9.284;2023-12-28T11:51:54;9.30;;;6.57;;
4311;SDS011;2169;49.086;9.284;2023-12-28T11:54:23;2.53;;;2.43;;
4311;SDS011;2169;49.086;9.284;2023-12-28T11:56:51;2.03;;;1.93;;
4311;SDS011;2169;49.086;9.284;2023-12-28T11:59:18;3.47;;;3.27;;
4311;SDS011;2169;49.086;9.284;2023-12-28T12:01:50;2.83;;;2.63;;
4311;SDS011;2169;49.086;9.284;2023-12-28T12:04:17;2.37;;;2.27;;
4311;SDS011;2169;49.086;9.284;2023-12-28T12:06:45;3.80;;;1.80;;
4311;SDS011;2169;49.086;9.284;2023-12-28T12:09:13;2.13;;;2.03;;
4311;SDS011;2169;49.086;9.284;2023-12-28T12:11:40;3.83;;;1.73;;
4311;SDS011;2169;49.086;9.284;2023-12-28T12:14:08;1.67;;;1.40;;
4311;SDS011;2169;49.086;9.284;2023-12-28T12:16:36;1.77;;;1.67;;
4311;SDS011;2169;49.086;9.284;2023-12-28T12:19:05;4.47;;;1.63;;
4311;SDS011;2169;49.086;9.284;2023-12-28T12:21:33;1.10;;;1.10;;
4311;SDS011;2169;49.086;9.284;2023-12-28T12:24:00;6.40;;;3.50;;
4311;SDS011;2169;49.086;9.284;2023-12-28T12:26:27;6.57;;;4.23;;
4311;SDS011;2169;49.086;9.284;2023-12-28T12:28:55;1.73;;;1.67;;
4311;SDS011;2169;49.086;9.284;2023-12-28T12:31:22;1.47;;;1.33;;
4311;SDS011;2169;49.086;9.284;2023-12-28T12:33:49;2.27;;;1.77;;
4311;SDS011;2169;49.086;9.284;2023-12-28T12:36:18;1.97;;;1.33;;
4311;SDS011;2169;49.086;9.284;2023-12-28T12:38:46;13.50;;;1.47;;
4311;SDS011;2169;49.086;9.284;2023-12-28T12:41:13;7.63;;;1.20;;
4311;SDS011;2169;49.086;9.284;2023-12-28T12:43:40;5.60;;;1.20;;
4311;SDS011;2169;49.086;9.284;2023-12-28T12:46:07;7.70;;;1.33;;
4311;SDS011;2169;49.086;9.284;2023-12-28T12:48:34;6.67;;;1.30;;
4311;SDS011;2169;49.086;9.284;2023-12-28T12:51:01;1.97;;;1.83;;
4311;SDS011;2169;49.086;9.284;2023-12-28T12:53:34;1.00;;;1.00;;
4311;SDS011;2169;49.086;9.284;2023-12-28T12:56:02;1.83;;;1.00;;
4311;SDS011;2169;49.086;9.284;2023-12-28T12:58:30;4.77;;;1.40;;
4311;SDS011;2169;49.086;9.284;2023-12-28T13:00:57;8.77;;;2.40;;
4311;SDS011;2169;49.086;9.284;2023-12-28T13:03:27;1.70;;;1.37;;
4311;SDS011;2169;49.086;9.284;2023-12-28T13:05:55;4.20;;;1.10;;
4311;SDS011;2169;49.086;9.284;2023-12-28T13:08:22;1.80;;;1.13;;
4311;SDS011;2169;49.086;9.284;2023-12-28T13:10:51;1.63;;;1.53;;
4311;SDS011;2169;49.086;9.284;2023-12-28T13:13:17;1.60;;;1.53;;
4311;SDS011;2169;49.086;9.284;2023-12-28T13:15:44;1.23;;;1.23;;
4311;SDS011;2169;49.086;9.284;2023-12-28T13:18:11;1.27;;;1.17;;
4311;SDS011;2169;49.086;9.284;2023-12-28T13:20:38;2.20;;;0.83;;
4311;SDS011;2169;49.086;9.284;2023-12-28T13:23:05;1.23;;;1.23;;
4311;SDS011;2169;49.086;9.284;2023-12-28T13:25:32;1.47;;;1.37;;
4311;SDS011;2169;49.086;9.284;2023-12-28T13:28:00;1.43;;;1.33;;
4311;SDS011;2169;49.086;9.284;2023-12-28T13:30:28;4.03;;;1.33;;
4311;SDS011;2169;49.086;9.284;2023-12-28T13:32:55;1.03;;;1.03;;
4311;SDS011;2169;49.086;9.284;2023-12-28T13:35:22;6.80;;;1.23;;
4311;SDS011;2169;49.086;9.284;2023-12-28T13:37:50;1.17;;;1.10;;
4311;SDS011;2169;49.086;9.284;2023-12-28T13:40:16;1.20;;;1.20;;
4311;SDS011;2169;49.086;9.284;2023-12-28T13:42:43;0.70;;;0.70;;
4311;SDS011;2169;49.086;9.284;2023-12-28T13:45:12;0.90;;;0.90;;
4311;SDS011;2169;49.086;9.284;2023-12-28T13:47:39;1.10;;;1.10;;
4311;SDS011;2169;49.086;9.284;2023-12-28T13:50:06;0.80;;;0.80;;
4311;SDS011;2169;49.086;9.284;2023-12-28T13:52:34;0.83;;;0.83;;
4311;SDS011;2169;49.086;9.284;2023-12-28T13:55:01;0.83;;;0.83;;
4311;SDS011;2169;49.086;9.284;2023-12-28T13:57:27;1.33;;;1.30;;
4311;SDS011;2169;49.086;9.284;2023-12-28T13:59:54;1.53;;;1.43;;
4311;SDS011;2169;49.086;9.284;2023-12-28T14:02:26;1.10;;;1.10;;
4311;SDS011;2169;49.086;9.284;2023-12-28T14:04:53;2.30;;;1.07;;
4311;SDS011;2169;49.086;9.284;2023-12-28T14:07:21;2.50;;;0.93;;
4311;SDS011;2169;49.086;9.284;2023-12-28T14:09:48;1.40;;;1.30;;
4311;SDS011;2169;49.086;9.284;2023-12-28T14:12:15;1.30;;;1.17;;
4311;SDS011;2169;49.086;9.284;2023-12-28T14:14:42;0.97;;;0.97;;
4311;SDS011;2169;49.086;9.284;2023-12-28T14:17:09;0.80;;;0.80;;
4311;SDS011;2169;49.086;9.284;2023-12-28T14:19:37;1.30;;;1.23;;
4311;SDS011;2169;49.086;9.284;2023-12-28T14:22:05;2.40;;;0.87;;
4311;SDS011;2169;49.086;9.284;2023-12-28T14:24:32;1.00;;;1.00;;
4311;SDS011;2169;49.086;9.284;2023-12-28T14:27:00;0.90;;;0.90;;
4311;SDS011;2169;49.086;9.284;2023-12-28T14:29:26;6.93;;;1.43;;
4311;SDS011;2169;49.086;9.284;2023-12-28T14:31:54;1.40;;;0.93;;
4311;SDS011;2169;49.086;9.284;2023-12-28T14:34:21;5.83;;;1.30;;
4311;SDS011;2169;49.086;9.284;2023-12-28T14:36:50;1.03;;;1.00;;
4311;SDS011;2169;49.086;9.284;2023-12-28T14:39:19;1.33;;;1.10;;
4311;SDS011;2169;49.086;9.284;2023-12-28T14:41:46;1.27;;;1.20;;
4311;SDS011;2169;49.086;9.284;2023-12-28T14:44:13;3.07;;;1.30;;
4311;SDS011;2169;49.086;9.284;2023-12-28T14:46:40;1.30;;;1.20;;
4311;SDS011;2169;49.086;9.284;2023-12-28T14:49:07;0.90;;;0.90;;
4311;SDS011;2169;49.086;9.284;2023-12-28T14:51:34;0.90;;;0.90;;
4311;SDS011;2169;49.086;9.284;2023-12-28T14:54:02;0.87;;;0.87;;
4311;SDS011;2169;49.086;9.284;2023-12-28T14:56:29;1.90;;;1.00;;
4311;SDS011;2169;49.086;9.284;2023-12-28T14:58:56;1.00;;;1.00;;
4311;SDS011;2169;49.086;9.284;2023-12-28T15:01:23;1.40;;;1.07;;
4311;SDS011;2169;49.086;9.284;2023-12-28T15:03:50;3.53;;;2.17;;
4311;SDS011;2169;49.086;9.284;2023-12-28T15:06:17;3.50;;;3.03;;
4311;SDS011;2169;49.086;9.284;2023-12-28T15:08:44;5.97;;;3.43;;
4311;SDS011;2169;49.086;9.284;2023-12-28T15:11:13;3.30;;;2.67;;
4311;SDS011;2169;49.086;9.284;2023-12-28T15:13:41;2.50;;;2.30;;
4311;SDS011;2169;49.086;9.284;2023-12-28T15:16:08;5.40;;;3.30;;
4311;SDS011;2169;49.086;9.284;2023-12-28T15:18:37;5.70;;;3.37;;